Time;durP1;ratioP1;P1;durP2;ratioP2;P2;SDS_P1;SDS_P2;PMS_P1;PMS_P2;Temp;Humidity;BMP_temperature;BMP_pressure;BME280_temperature;BME280_humidity;BME280_pressure;Samples;Min_cycle;Max_cycle;Signal;HPM_P1;HPM_P2
2023/06/09 00:02:20;;;;;;;11.45;9.20;;;;;;;;;;4978036;28;20050;-78
2023/06/09 00:04:48;;;;;;;9.80;8.82;;;;;;;;;;4977064;28;20506;-78
2023/06/09 00:07:16;;;;;;;12.05;9.50;;;;;;;;;;4976673;28;20050;-78
2023/06/09 00:09:44;;;;;;;12.68;9.27;;;;;;;;;;4961800;28;20113;-78
2023/06/09 00:12:12;;;;;;;9.70;8.75;;;;;;;;;;4973686;28;20141;-78
2023/06/09 00:14:39;;;;;;;10.00;9.00;;;;;;;;;;4960712;28;20100;-79
2023/06/09 00:17:08;;;;;;;12.23;9.40;;;;;;;;;;4992841;28;20051;-79
2023/06/09 00:19:36;;;;;;;11.15;10.02;;;;;;;;;;4993071;28;20053;-79
2023/06/09 00:22:05;;;;;;;9.93;9.02;;;;;;;;;;5009448;28;20046;-79
2023/06/09 00:24:31;;;;;;;10.27;9.27;;;;;;;;;;4993462;28;20068;-79
2023/06/09 00:26:58;;;;;;;12.75;9.38;;;;;;;;;;5008511;28;20121;-79
2023/06/09 00:29:25;;;;;;;10.05;9.05;;;;;;;;;;4977795;28;20097;-79
2023/06/09 00:31:52;;;;;;;10.15;8.80;;;;;;;;;;4993420;28;20054;-79
2023/06/09 00:34:19;;;;;;;10.75;9.65;;;;;;;;;;4992990;28;20058;-78
2023/06/09 00:36:46;;;;;;;10.68;9.07;;;;;;;;;;4961907;28;20076;-79
2023/06/09 00:39:13;;;;;;;10.85;9.00;;;;;;;;;;4993780;28;20057;-80
2023/06/09 00:41:41;;;;;;;9.98;8.93;;;;;;;;;;4988790;28;20051;-79
2023/06/09 00:44:09;;;;;;;10.63;9.52;;;;;;;;;;4958633;28;20078;-80
2023/06/09 00:46:37;;;;;;;11.60;9.32;;;;;;;;;;4941754;28;20058;-78
2023/06/09 00:49:04;;;;;;;12.82;9.40;;;;;;;;;;4956630;28;20059;-78
2023/06/09 00:51:31;;;;;;;9.45;8.55;;;;;;;;;;4940597;28;20077;-78
2023/06/09 00:53:58;;;;;;;9.32;8.43;;;;;;;;;;4956820;28;20054;-77
2023/06/09 00:56:25;;;;;;;11.85;9.07;;;;;;;;;;4972461;28;20511;-78
2023/06/09 00:58:52;;;;;;;13.25;10.13;;;;;;;;;;4940494;28;20270;-77
2023/06/09 01:01:19;;;;;;;13.23;10.98;;;;;;;;;;4955832;28;20054;-78
2023/06/09 01:03:49;;;;;;;11.15;9.65;;;;;;;;;;4955851;28;20129;-78
2023/06/09 01:06:26;;;;;;;10.05;9.05;;;;;;;;;;4971222;28;20055;-77
2023/06/09 01:09:02;;;;;;;12.70;10.20;;;;;;;;;;4941617;28;20101;-78
2023/06/09 01:11:33;;;;;;;10.77;9.50;;;;;;;;;;4975755;28;20064;-79
2023/06/09 01:14:13;;;;;;;10.80;9.40;;;;;;;;;;4975509;28;20057;-78
2023/06/09 01:16:40;;;;;;;11.68;10.48;;;;;;;;;;4959810;28;20077;-78
2023/06/09 01:19:11;;;;;;;11.95;10.75;;;;;;;;;;4992481;28;20058;-78
2023/06/09 01:21:43;;;;;;;12.73;11.27;;;;;;;;;;4959695;28;20097;-78
2023/06/09 01:24:15;;;;;;;12.60;11.40;;;;;;;;;;4987609;28;20447;-78
2023/06/09 01:26:43;;;;;;;12.63;10.88;;;;;;;;;;4971527;28;20437;-78
2023/06/09 01:29:10;;;;;;;12.40;11.00;;;;;;;;;;4955572;28;20066;-78
2023/06/09 01:31:37;;;;;;;12.98;11.60;;;;;;;;;;4955594;28;20073;-78
2023/06/09 01:34:04;;;;;;;12.02;10.80;;;;;;;;;;4939828;28;20065;-77
2023/06/09 01:36:31;;;;;;;13.68;12.27;;;;;;;;;;4956250;28;20093;-79
2023/06/09 01:38:58;;;;;;;12.25;10.93;;;;;;;;;;4976531;28;20050;-79
2023/06/09 01:41:25;;;;;;;13.40;11.93;;;;;;;;;;4990461;28;20042;-79
2023/06/09 01:43:52;;;;;;;12.43;11.23;;;;;;;;;;4943733;28;20183;-79
2023/06/09 01:46:19;;;;;;;13.30;11.70;;;;;;;;;;4971270;28;20094;-79
2023/06/09 01:49:03;;;;;;;13.38;12.00;;;;;;;;;;4955696;28;20061;-79
2023/06/09 01:51:52;;;;;;;13.35;11.57;;;;;;;;;;4956025;28;20696;-79
2023/06/09 01:54:31;;;;;;;12.75;11.27;;;;;;;;;;4971806;28;20492;-78
2023/06/09 01:57:08;;;;;;;13.63;11.43;;;;;;;;;;4958094;28;20120;-80
2023/06/09 01:59:44;;;;;;;13.38;11.98;;;;;;;;;;4959178;28;20519;-79
2023/06/09 02:02:11;;;;;;;14.75;11.38;;;;;;;;;;4942620;28;20451;-79
2023/06/09 02:04:38;;;;;;;12.65;11.10;;;;;;;;;;4944422;28;20594;-79
2023/06/09 02:07:05;;;;;;;12.43;10.90;;;;;;;;;;4943794;28;20051;-79
2023/06/09 02:09:32;;;;;;;14.23;11.50;;;;;;;;;;4980597;28;20054;-78
2023/06/09 02:11:59;;;;;;;15.60;12.07;;;;;;;;;;4958592;28;20077;-78
2023/06/09 02:14:33;;;;;;;12.20;10.85;;;;;;;;;;4974626;28;20077;-78
2023/06/09 02:17:02;;;;;;;13.63;12.20;;;;;;;;;;4958566;28;20490;-77
2023/06/09 02:19:30;;;;;;;12.70;11.30;;;;;;;;;;4962773;28;20058;-78
2023/06/09 02:21:57;;;;;;;13.43;11.73;;;;;;;;;;4994288;28;20054;-77
2023/06/09 02:24:28;;;;;;;13.15;11.88;;;;;;;;;;4990493;28;20062;-77
2023/06/09 02:26:56;;;;;;;14.25;11.45;;;;;;;;;;4975729;28;20074;-78
2023/06/09 02:29:24;;;;;;;12.90;11.60;;;;;;;;;;4943413;28;20106;-78
2023/06/09 02:31:55;;;;;;;13.50;12.02;;;;;;;;;;4945555;28;20055;-79
2023/06/09 02:34:22;;;;;;;13.85;11.98;;;;;;;;;;4961126;28;20140;-79
2023/06/09 02:36:54;;;;;;;13.25;11.63;;;;;;;;;;4961015;28;20085;-79
2023/06/09 02:39:21;;;;;;;13.45;11.50;;;;;;;;;;4954995;28;20065;-79
2023/06/09 02:41:48;;;;;;;13.32;11.80;;;;;;;;;;4962041;28;20097;-78
2023/06/09 02:44:15;;;;;;;12.85;11.48;;;;;;;;;;4978270;28;20080;-78
2023/06/09 02:46:43;;;;;;;13.13;11.73;;;;;;;;;;4961876;28;20054;-77
2023/06/09 02:49:10;;;;;;;13.90;12.07;;;;;;;;;;4962241;28;20062;-77
2023/06/09 02:51:37;;;;;;;13.10;11.68;;;;;;;;;;4993648;28;20065;-77
2023/06/09 02:54:04;;;;;;;14.20;12.30;;;;;;;;;;4989743;28;20050;-77
2023/06/09 02:56:31;;;;;;;12.85;11.55;;;;;;;;;;4958473;28;20083;-77
2023/06/09 02:58:58;;;;;;;12.27;10.98;;;;;;;;;;4974464;28;20058;-77
2023/06/09 03:01:27;;;;;;;13.05;11.52;;;;;;;;;;4974232;28;20051;-79
2023/06/09 03:03:54;;;;;;;13.27;11.68;;;;;;;;;;4974992;28;20515;-78
2023/06/09 03:06:20;;;;;;;12.82;11.60;;;;;;;;;;4958054;28;20050;-77
2023/06/09 03:08:47;;;;;;;12.95;11.65;;;;;;;;;;4961793;28;20144;-77
2023/06/09 03:11:14;;;;;;;12.15;10.95;;;;;;;;;;4977280;28;20395;-77
2023/06/09 03:13:41;;;;;;;14.82;11.05;;;;;;;;;;4977508;28;20467;-78
2023/06/09 03:16:08;;;;;;;12.52;11.27;;;;;;;;;;4993374;28;20069;-77
2023/06/09 03:18:35;;;;;;;13.10;11.80;;;;;;;;;;4976957;28;20466;-77
2023/06/09 03:21:04;;;;;;;12.43;10.85;;;;;;;;;;4992772;28;20061;-77
2023/06/09 03:23:34;;;;;;;14.13;11.85;;;;;;;;;;4969527;28;20096;-77
2023/06/09 03:26:01;;;;;;;12.57;11.18;;;;;;;;;;4995233;28;20480;-78
2023/06/09 03:28:28;;;;;;;13.38;12.07;;;;;;;;;;4963243;28;20752;-79
2023/06/09 03:30:55;;;;;;;12.82;11.57;;;;;;;;;;4995216;28;20054;-78
2023/06/09 03:33:24;;;;;;;12.85;10.80;;;;;;;;;;4995444;28;20065;-79
2023/06/09 03:35:51;;;;;;;14.68;11.35;;;;;;;;;;4977439;28;20050;-79
2023/06/09 03:38:18;;;;;;;15.02;12.73;;;;;;;;;;4960462;28;20134;-79
2023/06/09 03:40:45;;;;;;;14.00;11.82;;;;;;;;;;4976680;28;20050;-82
2023/06/09 03:43:12;;;;;;;16.25;11.93;;;;;;;;;;4963477;28;20089;-80
2023/06/09 03:45:38;;;;;;;14.05;12.57;;;;;;;;;;4964692;28;20047;-78
2023/06/09 03:48:06;;;;;;;14.50;11.85;;;;;;;;;;4961087;28;20566;-78
2023/06/09 03:50:33;;;;;;;12.98;10.77;;;;;;;;;;4974170;28;20058;-80
2023/06/09 03:53:00;;;;;;;13.50;12.10;;;;;;;;;;4962626;28;20062;-81
2023/06/09 03:55:29;;;;;;;12.23;10.73;;;;;;;;;;4997560;28;20100;-80
2023/06/09 03:57:56;;;;;;;14.15;11.98;;;;;;;;;;4974349;28;20067;-81
2023/06/09 04:00:23;;;;;;;14.25;11.98;;;;;;;;;;4974487;28;20059;-80
2023/06/09 04:02:50;;;;;;;14.80;11.90;;;;;;;;;;4975935;28;20051;-80
2023/06/09 04:05:17;;;;;;;11.88;10.70;;;;;;;;;;4993482;28;20518;-81
2023/06/09 04:07:44;;;;;;;14.18;11.70;;;;;;;;;;4993882;28;20057;-81
2023/06/09 04:10:11;;;;;;;13.27;11.98;;;;;;;;;;4994842;28;20054;-78
2023/06/09 04:12:41;;;;;;;12.13;10.85;;;;;;;;;;4994262;28;20085;-79
2023/06/09 04:15:09;;;;;;;13.38;11.98;;;;;;;;;;4994084;28;20108;-79
2023/06/09 04:17:38;;;;;;;12.32;10.70;;;;;;;;;;4959730;28;20043;-78
2023/06/09 04:20:07;;;;;;;12.75;11.45;;;;;;;;;;4966914;28;20057;-79
2023/06/09 04:22:38;;;;;;;13.10;11.80;;;;;;;;;;4994409;28;20054;-78
2023/06/09 04:25:05;;;;;;;12.43;11.20;;;;;;;;;;4965519;28;20126;-79
2023/06/09 04:27:32;;;;;;;13.02;11.55;;;;;;;;;;5007142;28;20058;-79
2023/06/09 04:29:59;;;;;;;14.95;11.50;;;;;;;;;;5013288;28;20058;-79
2023/06/09 04:32:32;;;;;;;14.18;11.93;;;;;;;;;;4993732;28;20054;-78
2023/06/09 04:35:00;;;;;;;13.20;11.73;;;;;;;;;;5002104;28;20133;-77
2023/06/09 04:37:27;;;;;;;15.20;11.30;;;;;;;;;;4978816;28;20424;-83
2023/06/09 04:39:55;;;;;;;13.07;11.70;;;;;;;;;;4995722;28;20104;-83
2023/06/09 04:42:22;;;;;;;13.45;12.15;;;;;;;;;;4978798;28;20054;-81
2023/06/09 04:44:50;;;;;;;12.93;11.60;;;;;;;;;;4995284;28;20061;-81
2023/06/09 04:47:17;;;;;;;13.45;11.95;;;;;;;;;;4977295;28;20060;-81
2023/06/09 04:49:46;;;;;;;13.90;12.48;;;;;;;;;;4977520;28;20054;-81
2023/06/09 04:52:17;;;;;;;14.07;12.57;;;;;;;;;;4977920;28;20140;-82
2023/06/09 04:54:45;;;;;;;13.55;12.18;;;;;;;;;;4978403;28;20123;-82
2023/06/09 04:57:13;;;;;;;12.90;11.60;;;;;;;;;;4957497;28;20097;-78
2023/06/09 04:59:40;;;;;;;15.35;11.43;;;;;;;;;;4992393;28;20499;-77
2023/06/09 05:02:10;;;;;;;12.57;11.27;;;;;;;;;;4990949;28;20141;-77
2023/06/09 05:04:37;;;;;;;12.20;11.00;;;;;;;;;;4954443;28;20055;-81
2023/06/09 05:07:06;;;;;;;11.73;10.57;;;;;;;;;;4996718;28;20069;-78
2023/06/09 05:09:35;;;;;;;12.23;10.68;;;;;;;;;;4973994;28;20183;-76
2023/06/09 05:12:02;;;;;;;12.93;10.20;;;;;;;;;;4976906;28;20439;-78
2023/06/09 05:14:30;;;;;;;14.38;10.77;;;;;;;;;;4972750;28;20110;-80
2023/06/09 05:16:59;;;;;;;12.43;11.20;;;;;;;;;;4959900;28;20057;-79
2023/06/09 05:19:27;;;;;;;12.15;10.52;;;;;;;;;;4942940;28;20051;-79
2023/06/09 05:21:56;;;;;;;11.35;10.25;;;;;;;;;;4943852;28;20055;-78
2023/06/09 05:24:23;;;;;;;11.68;10.43;;;;;;;;;;4973006;28;20047;-78
2023/06/09 05:26:50;;;;;;;12.13;10.20;;;;;;;;;;4986985;28;20050;-77
2023/06/09 05:29:17;;;;;;;11.77;9.70;;;;;;;;;;4992074;28;20058;-78
2023/06/09 05:31:46;;;;;;;11.18;9.55;;;;;;;;;;4990460;28;20074;-79
2023/06/09 05:34:13;;;;;;;11.32;9.60;;;;;;;;;;4987135;28;20054;-79
2023/06/09 05:36:41;;;;;;;12.25;9.35;;;;;;;;;;5006334;28;20116;-78
2023/06/09 05:39:08;;;;;;;10.35;9.27;;;;;;;;;;4970756;28;20101;-79
2023/06/09 05:41:36;;;;;;;10.13;9.05;;;;;;;;;;4991349;28;20061;-76
2023/06/09 05:44:04;;;;;;;11.50;9.45;;;;;;;;;;4975582;28;20104;-77
2023/06/09 05:46:31;;;;;;;9.68;8.50;;;;;;;;;;4992547;28;20441;-77
2023/06/09 05:48:59;;;;;;;11.15;9.88;;;;;;;;;;4972217;28;20065;-77
2023/06/09 05:51:26;;;;;;;10.20;9.00;;;;;;;;;;4974719;28;20454;-83
2023/06/09 05:53:54;;;;;;;11.25;9.65;;;;;;;;;;4992224;28;20055;-81
2023/06/09 05:56:23;;;;;;;9.98;8.98;;;;;;;;;;4976531;28;20058;-82
2023/06/09 05:58:51;;;;;;;9.77;8.85;;;;;;;;;;4990443;28;20050;-82
2023/06/09 06:01:19;;;;;;;9.13;8.20;;;;;;;;;;4977402;28;20053;-81
2023/06/09 06:03:46;;;;;;;8.48;7.63;;;;;;;;;;5003512;28;20080;-79
2023/06/09 06:06:13;;;;;;;11.15;8.30;;;;;;;;;;5016025;28;20080;-79
2023/06/09 06:08:40;;;;;;;9.55;7.65;;;;;;;;;;5006403;28;20077;-75
2023/06/09 06:11:07;;;;;;;8.57;7.78;;;;;;;;;;4987694;28;20050;-75
2023/06/09 06:13:34;;;;;;;8.38;7.57;;;;;;;;;;4973132;28;20046;-76
2023/06/09 06:16:01;;;;;;;7.78;7.00;;;;;;;;;;5006384;28;20062;-75
2023/06/09 06:18:28;;;;;;;9.20;8.05;;;;;;;;;;4969953;28;20129;-76
2023/06/09 06:20:55;;;;;;;10.02;7.65;;;;;;;;;;4957946;28;20746;-76
2023/06/09 06:23:22;;;;;;;9.20;8.23;;;;;;;;;;4955344;28;20106;-75
2023/06/09 06:25:48;;;;;;;8.25;7.35;;;;;;;;;;4937862;28;20133;-75
2023/06/09 06:28:15;;;;;;;8.95;7.55;;;;;;;;;;4986362;28;20050;-76
2023/06/09 06:30:42;;;;;;;7.85;7.05;;;;;;;;;;4988642;28;20085;-76
2023/06/09 06:33:09;;;;;;;7.05;6.35;;;;;;;;;;4988556;28;20058;-76
2023/06/09 06:35:36;;;;;;;6.78;6.05;;;;;;;;;;4971789;28;20517;-75
2023/06/09 06:38:03;;;;;;;6.50;5.43;;;;;;;;;;5005990;28;20526;-75
2023/06/09 06:40:30;;;;;;;6.65;5.95;;;;;;;;;;5005673;28;20054;-76
2023/06/09 06:42:56;;;;;;;5.85;5.25;;;;;;;;;;5005134;28;20729;-75
2023/06/09 06:45:25;;;;;;;6.30;5.40;;;;;;;;;;5004975;28;20466;-76
2023/06/09 06:47:53;;;;;;;5.95;5.35;;;;;;;;;;4975310;28;20082;-76
2023/06/09 06:50:20;;;;;;;6.70;5.30;;;;;;;;;;4937770;28;20054;-76
2023/06/09 06:52:51;;;;;;;6.90;6.20;;;;;;;;;;4954077;28;20531;-76
2023/06/09 06:55:18;;;;;;;6.18;5.57;;;;;;;;;;4955736;28;20084;-74
2023/06/09 06:57:45;;;;;;;6.60;5.32;;;;;;;;;;4950775;28;20569;-77
2023/06/09 07:00:14;;;;;;;6.63;5.65;;;;;;;;;;4940976;28;20434;-74
2023/06/09 07:02:44;;;;;;;5.80;4.82;;;;;;;;;;4953563;28;20062;-75
2023/06/09 07:05:13;;;;;;;5.65;4.70;;;;;;;;;;4957205;28;20065;-75
2023/06/09 07:07:40;;;;;;;5.88;5.28;;;;;;;;;;4957650;28;20078;-75
2023/06/09 07:10:08;;;;;;;5.22;4.72;;;;;;;;;;4956449;28;20200;-75
2023/06/09 07:12:35;;;;;;;5.07;4.55;;;;;;;;;;4956689;28;20046;-74
2023/06/09 07:15:03;;;;;;;7.18;6.47;;;;;;;;;;4956831;28;20066;-74
2023/06/09 07:17:30;;;;;;;5.63;5.07;;;;;;;;;;4965465;28;20477;-74
2023/06/09 07:19:57;;;;;;;4.38;3.95;;;;;;;;;;4992027;28;20462;-74
2023/06/09 07:22:24;;;;;;;6.05;5.07;;;;;;;;;;4992043;28;20050;-73
2023/06/09 07:24:51;;;;;;;4.72;4.32;;;;;;;;;;4976271;28;20089;-74
2023/06/09 07:27:18;;;;;;;6.28;5.68;;;;;;;;;;4967410;28;20054;-73
2023/06/09 07:29:44;;;;;;;6.22;4.78;;;;;;;;;;4956778;28;20566;-73
2023/06/09 07:32:11;;;;;;;5.03;4.53;;;;;;;;;;4971994;28;20050;-73
2023/06/09 07:34:42;;;;;;;5.00;4.50;;;;;;;;;;4975070;28;20129;-74
2023/06/09 07:37:09;;;;;;;4.75;4.22;;;;;;;;;;4974921;28;20039;-73
2023/06/09 07:39:36;;;;;;;5.40;4.45;;;;;;;;;;4974916;28;20094;-74
2023/06/09 07:42:03;;;;;;;4.05;3.50;;;;;;;;;;4958179;28;20090;-74
2023/06/09 07:44:30;;;;;;;6.85;4.60;;;;;;;;;;4958343;28;20113;-75
2023/06/09 07:46:57;;;;;;;5.28;4.22;;;;;;;;;;4977190;28;20050;-79
2023/06/09 07:49:26;;;;;;;4.10;3.70;;;;;;;;;;4977132;28;20097;-77
2023/06/09 07:51:53;;;;;;;4.30;3.90;;;;;;;;;;4978338;28;20050;-81
2023/06/09 07:54:21;;;;;;;3.75;3.42;;;;;;;;;;4980393;28;20105;-82
2023/06/09 07:56:49;;;;;;;3.80;3.50;;;;;;;;;;4979602;28;20063;-82
2023/06/09 07:59:20;;;;;;;6.47;3.53;;;;;;;;;;4966323;28;20557;-81
2023/06/09 08:01:47;;;;;;;5.93;3.95;;;;;;;;;;4996475;28;20428;-81
2023/06/09 08:04:15;;;;;;;4.18;3.75;;;;;;;;;;4979818;28;20537;-75
2023/06/09 08:06:43;;;;;;;3.72;3.42;;;;;;;;;;4976006;28;20482;-73
2023/06/09 08:09:10;;;;;;;4.80;3.50;;;;;;;;;;4973138;28;20105;-72
2023/06/09 08:11:38;;;;;;;3.65;3.20;;;;;;;;;;4972812;28;20101;-75
2023/06/09 08:14:06;;;;;;;4.97;3.53;;;;;;;;;;4984557;28;20105;-75
2023/06/09 08:16:33;;;;;;;3.63;3.33;;;;;;;;;;4975026;28;20050;-78
2023/06/09 08:19:00;;;;;;;6.32;3.20;;;;;;;;;;4994244;28;20487;-77
2023/06/09 08:21:27;;;;;;;3.88;3.42;;;;;;;;;;4988985;28;20550;-78
2023/06/09 08:23:53;;;;;;;3.75;3.45;;;;;;;;;;4988356;28;20499;-77
2023/06/09 08:26:20;;;;;;;3.47;3.17;;;;;;;;;;4995490;28;20078;-81
2023/06/09 08:28:48;;;;;;;3.08;2.80;;;;;;;;;;4997823;28;20089;-81
2023/06/09 08:31:15;;;;;;;4.05;3.33;;;;;;;;;;4965738;28;20054;-81
2023/06/09 08:33:42;;;;;;;3.65;2.90;;;;;;;;;;4982860;28;20133;-80
2023/06/09 08:36:09;;;;;;;3.20;2.90;;;;;;;;;;4999087;28;20046;-80
2023/06/09 08:38:36;;;;;;;3.85;3.17;;;;;;;;;;4963498;28;20486;-80
2023/06/09 08:41:09;;;;;;;;;;;;;;;;;;4990310;28;20137;-79
2023/06/09 08:43:36;;;;;;;2.80;2.60;;;;;;;;;;4991495;28;20357;-80
2023/06/09 08:46:05;;;;;;;2.90;2.35;;;;;;;;;;4994227;28;20050;-80
2023/06/09 08:48:33;;;;;;;2.78;2.58;;;;;;;;;;4967551;28;20046;-79
2023/06/09 08:51:00;;;;;;;2.70;2.42;;;;;;;;;;4999326;28;20034;-80
2023/06/09 08:53:27;;;;;;;3.55;2.85;;;;;;;;;;4983902;28;20063;-80
2023/06/09 08:55:54;;;;;;;4.72;3.17;;;;;;;;;;4956757;28;20069;-80
2023/06/09 08:58:24;;;;;;;4.15;3.00;;;;;;;;;;4958863;28;20077;-80
2023/06/09 09:00:52;;;;;;;3.58;3.17;;;;;;;;;;4991325;28;20561;-81
2023/06/09 09:03:20;;;;;;;3.40;2.95;;;;;;;;;;4973661;28;20145;-80
2023/06/09 09:05:47;;;;;;;2.92;2.70;;;;;;;;;;4993397;28;20197;-80
2023/06/09 09:08:14;;;;;;;3.63;3.28;;;;;;;;;;4976762;28;20038;-81
2023/06/09 09:10:42;;;;;;;6.32;3.28;;;;;;;;;;4968566;28;20155;-80
2023/06/09 09:13:10;;;;;;;3.47;3.03;;;;;;;;;;4957704;28;20053;-82
2023/06/09 09:15:45;;;;;;;2.97;2.50;;;;;;;;;;4961341;28;20798;-81
2023/06/09 09:18:17;;;;;;;5.53;5.00;;;;;;;;;;4976552;28;20057;-81
2023/06/09 09:20:44;;;;;;;3.35;3.05;;;;;;;;;;4977779;28;20514;-81
2023/06/09 09:23:14;;;;;;;3.97;2.80;;;;;;;;;;4961320;28;20056;-81
2023/06/09 09:25:43;;;;;;;3.13;2.70;;;;;;;;;;4994067;28;20050;-81
2023/06/09 09:28:12;;;;;;;3.20;2.55;;;;;;;;;;4993411;28;20057;-81
2023/06/09 09:30:43;;;;;;;4.70;2.95;;;;;;;;;;4993259;28;20149;-81
2023/06/09 09:33:29;;;;;;;2.95;2.65;;;;;;;;;;4990886;28;20047;-81
2023/06/09 09:35:59;;;;;;;3.17;2.88;;;;;;;;;;4984521;28;20054;-81
2023/06/09 09:38:28;;;;;;;3.78;3.45;;;;;;;;;;4962779;28;20050;-82
2023/06/09 09:40:58;;;;;;;3.55;3.25;;;;;;;;;;4964320;28;20054;-81
2023/06/09 09:43:38;;;;;;;2.78;2.58;;;;;;;;;;4991697;28;20129;-82
2023/06/09 09:46:19;;;;;;;4.20;2.72;;;;;;;;;;4978773;28;20125;-82
2023/06/09 09:48:47;;;;;;;3.40;3.10;;;;;;;;;;4981371;28;20171;-81
2023/06/09 09:51:24;;;;;;;3.22;2.92;;;;;;;;;;4977050;28;20055;-81
2023/06/09 09:53:51;;;;;;;3.30;2.90;;;;;;;;;;4992621;28;20089;-82
2023/06/09 09:56:22;;;;;;;2.58;2.38;;;;;;;;;;4991443;28;20065;-81
2023/06/09 09:58:52;;;;;;;3.33;3.05;;;;;;;;;;4963646;28;20050;-81
2023/06/09 10:01:23;;;;;;;3.03;2.83;;;;;;;;;;4959861;28;20046;-80
2023/06/09 10:03:53;;;;;;;3.42;2.80;;;;;;;;;;4967104;28;20081;-78
2023/06/09 10:06:23;;;;;;;3.22;2.92;;;;;;;;;;4972054;28;20046;-74
2023/06/09 10:08:50;;;;;;;3.25;2.88;;;;;;;;;;4966226;28;20042;-75
2023/06/09 10:11:17;;;;;;;2.65;2.45;;;;;;;;;;4995379;28;20069;-79
2023/06/09 10:13:44;;;;;;;2.97;2.33;;;;;;;;;;4962266;28;20105;-78
2023/06/09 10:16:10;;;;;;;3.00;2.70;;;;;;;;;;4976800;28;20042;-78
2023/06/09 10:18:39;;;;;;;4.20;2.95;;;;;;;;;;4995646;28;20073;-78
2023/06/09 10:21:06;;;;;;;3.63;2.63;;;;;;;;;;4978111;28;20065;-78
2023/06/09 10:23:33;;;;;;;2.60;2.40;;;;;;;;;;4961660;28;20058;-78
2023/06/09 10:26:01;;;;;;;2.85;2.60;;;;;;;;;;4962186;28;20061;-78
2023/06/09 10:28:28;;;;;;;2.88;2.67;;;;;;;;;;4977126;28;20553;-78
2023/06/09 10:30:55;;;;;;;2.90;2.60;;;;;;;;;;4962122;28;20593;-77
2023/06/09 10:33:36;;;;;;;3.33;2.97;;;;;;;;;;4978121;28;20482;-78
2023/06/09 10:36:05;;;;;;;3.00;2.70;;;;;;;;;;4965912;28;20064;-78
2023/06/09 10:38:35;;;;;;;2.90;2.70;;;;;;;;;;4967977;28;20067;-78
2023/06/09 10:41:15;;;;;;;2.83;2.63;;;;;;;;;;4981722;28;20065;-78
2023/06/09 10:43:42;;;;;;;2.28;2.08;;;;;;;;;;4967986;28;20134;-78
2023/06/09 10:46:12;;;;;;;2.40;2.20;;;;;;;;;;5001817;28;20565;-78
2023/06/09 10:48:41;;;;;;;3.05;2.38;;;;;;;;;;4984869;28;20058;-78
2023/06/09 10:51:26;;;;;;;2.53;2.33;;;;;;;;;;4982759;28;20050;-78
2023/06/09 10:54:17;;;;;;;3.03;2.50;;;;;;;;;;4982644;28;20065;-78
2023/06/09 10:56:53;;;;;;;2.95;2.58;;;;;;;;;;4982532;28;20058;-78
2023/06/09 10:59:26;;;;;;;2.22;2.10;;;;;;;;;;4955625;28;20082;-77
2023/06/09 11:02:05;;;;;;;2.33;2.13;;;;;;;;;;4996738;28;20057;-79
2023/06/09 11:04:44;;;;;;;3.13;2.20;;;;;;;;;;4999286;28;20080;-75
2023/06/09 11:07:29;;;;;;;2.33;2.13;;;;;;;;;;4995318;28;20065;-77
2023/06/09 11:09:56;;;;;;;2.75;2.33;;;;;;;;;;4962480;28;20049;-77
2023/06/09 11:12:46;;;;;;;3.97;2.38;;;;;;;;;;4996665;28;20073;-81
2023/06/09 11:15:16;;;;;;;3.72;2.20;;;;;;;;;;4997567;28;20086;-81
2023/06/09 11:17:45;;;;;;;4.38;2.38;;;;;;;;;;4982617;28;20073;-81
2023/06/09 11:20:14;;;;;;;2.17;1.92;;;;;;;;;;4981579;28;20554;-82
2023/06/09 11:22:41;;;;;;;2.67;2.20;;;;;;;;;;4980496;28;20050;-80
2023/06/09 11:25:30;;;;;;;3.35;2.33;;;;;;;;;;5000770;28;20132;-79
2023/06/09 11:27:57;;;;;;;2.65;2.17;;;;;;;;;;4983900;28;20075;-79
2023/06/09 11:30:29;;;;;;;2.67;2.47;;;;;;;;;;4990931;28;20050;-78
2023/06/09 11:33:01;;;;;;;2.72;2.25;;;;;;;;;;4975347;28;20093;-78
2023/06/09 11:35:28;;;;;;;2.22;2.13;;;;;;;;;;4968883;28;20068;-78
2023/06/09 11:38:05;;;;;;;2.40;2.20;;;;;;;;;;4986483;28;20095;-78
2023/06/09 11:40:34;;;;;;;2.28;1.60;;;;;;;;;;4960798;28;20050;-78
2023/06/09 11:43:03;;;;;;;2.47;2.20;;;;;;;;;;4989212;28;20046;-80
2023/06/09 11:45:30;;;;;;;2.13;2.03;;;;;;;;;;5000752;28;20050;-81
2023/06/09 11:48:00;;;;;;;2.97;2.13;;;;;;;;;;5020373;28;20054;-80
2023/06/09 11:50:43;;;;;;;1.80;1.70;;;;;;;;;;5006276;28;20065;-80
2023/06/09 11:53:16;;;;;;;2.00;1.90;;;;;;;;;;4982625;28;20063;-79
2023/06/09 11:55:43;;;;;;;3.35;2.05;;;;;;;;;;5008583;28;20046;-80
2023/06/09 11:58:12;;;;;;;3.75;2.08;;;;;;;;;;4996658;28;20046;-80
2023/06/09 12:00:41;;;;;;;2.35;1.80;;;;;;;;;;4979164;28;20057;-80
2023/06/09 12:03:09;;;;;;;2.40;2.20;;;;;;;;;;4995997;28;20127;-81
2023/06/09 12:05:37;;;;;;;2.22;2.10;;;;;;;;;;4976104;28;20053;-79
2023/06/09 12:08:07;;;;;;;1.90;1.80;;;;;;;;;;4956893;28;20046;-79
2023/06/09 12:10:34;;;;;;;3.38;2.05;;;;;;;;;;4962925;28;20062;-80
2023/06/09 12:13:01;;;;;;;3.08;2.10;;;;;;;;;;5007681;28;20066;-79
2023/06/09 12:15:30;;;;;;;2.47;2.10;;;;;;;;;;5001554;28;20051;-82
2023/06/09 12:17:58;;;;;;;2.10;2.00;;;;;;;;;;4989459;28;20412;-82
2023/06/09 12:20:26;;;;;;;4.35;1.92;;;;;;;;;;4970821;28;20061;-82
2023/06/09 12:22:54;;;;;;;2.03;1.92;;;;;;;;;;5005627;28;20086;-82
2023/06/09 12:25:36;;;;;;;2.03;1.92;;;;;;;;;;4996600;28;20054;-82
2023/06/09 12:28:16;;;;;;;2.08;1.83;;;;;;;;;;4985904;28;20426;-81
2023/06/09 12:30:48;;;;;;;2.47;2.28;;;;;;;;;;4977494;28;20046;-81
2023/06/09 12:33:26;;;;;;;1.90;1.80;;;;;;;;;;4976784;28;20049;-81
2023/06/09 12:36:04;;;;;;;2.88;2.40;;;;;;;;;;4987800;28;20055;-81
2023/06/09 12:38:38;;;;;;;3.97;2.22;;;;;;;;;;4979489;28;20051;-82
2023/06/09 12:41:09;;;;;;;2.33;1.85;;;;;;;;;;4989990;28;20482;-80
2023/06/09 12:43:59;;;;;;;3.05;2.05;;;;;;;;;;4986830;28;20050;-81
2023/06/09 12:46:27;;;;;;;2.30;2.10;;;;;;;;;;4995671;28;20053;-81
2023/06/09 12:49:08;;;;;;;2.25;2.05;;;;;;;;;;4996066;28;20047;-81
2023/06/09 12:51:46;;;;;;;2.63;2.20;;;;;;;;;;4984718;28;20053;-81
2023/06/09 12:54:13;;;;;;;2.25;1.83;;;;;;;;;;4969858;28;20050;-80
2023/06/09 12:56:40;;;;;;;2.67;1.77;;;;;;;;;;4976026;28;20046;-81
2023/06/09 12:59:08;;;;;;;3.13;2.22;;;;;;;;;;4992835;28;20081;-80
2023/06/09 13:01:35;;;;;;;3.63;2.30;;;;;;;;;;4974761;28;20451;-80
2023/06/09 13:04:03;;;;;;;2.08;1.98;;;;;;;;;;4994865;28;20054;-81
2023/06/09 13:06:30;;;;;;;2.20;2.00;;;;;;;;;;4955649;28;20070;-83
2023/06/09 13:08:57;;;;;;;2.30;2.10;;;;;;;;;;4972912;28;20074;-80
2023/06/09 13:11:24;;;;;;;2.60;2.40;;;;;;;;;;4987303;28;20094;-81
2023/06/09 13:13:51;;;;;;;2.72;2.05;;;;;;;;;;4987260;28;20050;-81
2023/06/09 13:16:19;;;;;;;2.55;2.20;;;;;;;;;;4974211;28;20055;-81
2023/06/09 13:18:46;;;;;;;2.35;2.08;;;;;;;;;;4973102;28;20047;-81
2023/06/09 13:21:13;;;;;;;1.90;1.80;;;;;;;;;;4971218;28;20058;-81
2023/06/09 13:23:40;;;;;;;2.22;2.08;;;;;;;;;;4976456;28;20046;-81
2023/06/09 13:26:06;;;;;;;2.25;2.00;;;;;;;;;;4968698;28;20054;-81
2023/06/09 13:28:33;;;;;;;2.25;1.90;;;;;;;;;;4979173;28;20590;-80
2023/06/09 13:31:00;;;;;;;1.98;1.70;;;;;;;;;;4968026;28;20050;-81
2023/06/09 13:33:29;;;;;;;2.10;1.90;;;;;;;;;;4965432;28;20047;-81
2023/06/09 13:35:56;;;;;;;1.75;1.65;;;;;;;;;;4967966;28;20545;-81
2023/06/09 13:38:23;;;;;;;2.10;2.00;;;;;;;;;;4975386;28;20054;-80
2023/06/09 13:40:50;;;;;;;2.53;1.98;;;;;;;;;;4963550;28;20062;-80
2023/06/09 13:43:17;;;;;;;2.47;1.60;;;;;;;;;;4982540;28;20445;-80
2023/06/09 13:45:44;;;;;;;2.33;2.13;;;;;;;;;;4966791;28;20589;-80
2023/06/09 13:48:11;;;;;;;1.95;1.75;;;;;;;;;;4971613;28;20060;-80
2023/06/09 13:50:39;;;;;;;2.22;2.03;;;;;;;;;;4966241;28;20118;-80
2023/06/09 13:53:06;;;;;;;1.75;1.65;;;;;;;;;;4968371;28;20061;-78
2023/06/09 13:55:33;;;;;;;2.10;1.92;;;;;;;;;;4974609;28;20066;-80
2023/06/09 13:57:59;;;;;;;2.30;1.88;;;;;;;;;;4984799;28;20046;-79
2023/06/09 14:00:26;;;;;;;2.35;2.13;;;;;;;;;;4965172;28;20057;-79
2023/06/09 14:02:54;;;;;;;2.05;1.70;;;;;;;;;;4955570;28;20085;-81
2023/06/09 14:05:23;;;;;;;2.40;2.03;;;;;;;;;;4970686;28;20643;-80
2023/06/09 14:07:50;;;;;;;2.28;2.08;;;;;;;;;;4964910;28;20046;-80
2023/06/09 14:10:17;;;;;;;4.85;2.42;;;;;;;;;;4951909;28;20046;-80
2023/06/09 14:12:47;;;;;;;1.80;1.70;;;;;;;;;;4958205;28;20062;-80
2023/06/09 14:15:15;;;;;;;2.10;1.73;;;;;;;;;;4972863;28;20082;-80
2023/06/09 14:17:54;;;;;;;2.10;1.92;;;;;;;;;;4989040;28;20133;-80
2023/06/09 14:20:24;;;;;;;2.05;1.90;;;;;;;;;;4983175;28;20094;-79
2023/06/09 14:22:51;;;;;;;3.47;2.03;;;;;;;;;;4958031;28;20059;-80
2023/06/09 14:25:21;;;;;;;2.08;1.90;;;;;;;;;;4969192;28;20055;-81
2023/06/09 14:27:49;;;;;;;2.22;2.00;;;;;;;;;;4981194;28;20097;-80
2023/06/09 14:30:21;;;;;;;2.97;1.92;;;;;;;;;;4986776;28;20054;-80
2023/06/09 14:32:51;;;;;;;2.75;2.13;;;;;;;;;;4999176;28;20050;-80
2023/06/09 14:35:23;;;;;;;2.73;2.37;;;;;;;;;;4972570;28;20054;-80
2023/06/09 14:37:56;;;;;;;2.40;2.20;;;;;;;;;;4989428;28;20046;-80
2023/06/09 14:40:34;;;;;;;1.95;1.85;;;;;;;;;;4971420;28;20503;-80
2023/06/09 14:43:04;;;;;;;2.75;2.13;;;;;;;;;;4961259;28;20090;-81
2023/06/09 14:45:31;;;;;;;2.92;2.10;;;;;;;;;;4974263;28;20116;-81